createdAt,value
2022-08-28T00:04:12.937Z,6.13
2022-08-28T00:09:14.988Z,3.37
2022-08-28T00:14:21.057Z,6.27
2022-08-28T00:19:24.091Z,3.83
2022-08-28T00:24:25.870Z,4.37
2022-08-28T00:29:28.223Z,4.43
2022-08-28T00:34:32.998Z,4.97
2022-08-28T00:39:35.337Z,4.37
2022-08-28T00:44:37.176Z,5.13
2022-08-28T00:49:48.208Z,3.77
2022-08-28T00:55:06.697Z,5.37
2022-08-28T01:00:12.463Z,4.70
2022-08-28T01:05:15.832Z,4.53
2022-08-28T01:10:20.468Z,4.40
2022-08-28T01:15:25.725Z,4.63
2022-08-28T01:20:30.245Z,5.13
2022-08-28T01:25:34.862Z,3.67
2022-08-28T01:30:37.115Z,4.23
2022-08-28T01:35:41.967Z,4.33
2022-08-28T01:40:46.423Z,3.93
2022-08-28T01:45:54.927Z,4.87
2022-08-28T01:50:57.049Z,5.10
2022-08-28T01:56:00.207Z,4.43
2022-08-28T02:01:02.343Z,4.40
2022-08-28T02:06:04.415Z,4.40
2022-08-28T02:11:07.378Z,5.13
2022-08-28T02:16:10.871Z,4.40
2022-08-28T02:27:28.701Z,4.03
2022-08-28T02:32:30.446Z,3.83
2022-08-28T02:37:32.165Z,4.87
2022-08-28T02:42:34.105Z,4.73
2022-08-28T02:47:35.885Z,4.80
2022-08-28T02:52:38.261Z,4.17
2022-08-28T02:57:40.446Z,3.93
2022-08-28T03:02:42.845Z,5.33
2022-08-28T03:07:44.883Z,5.67
2022-08-28T03:12:46.868Z,4.67
2022-08-28T03:17:49.708Z,3.53
2022-08-28T03:23:10.805Z,5.13
2022-08-28T03:28:12.805Z,4.97
2022-08-28T03:33:14.610Z,4.37
2022-08-28T03:38:17.160Z,4.87
2022-08-28T03:43:21.731Z,4.77
2022-08-28T03:48:24.438Z,4.30
2022-08-28T03:53:30.684Z,4.23
2022-08-28T03:58:32.584Z,4.17
2022-08-28T04:03:34.535Z,5.07
2022-08-28T04:08:36.698Z,4.90
2022-08-28T04:13:38.627Z,3.93
2022-08-28T04:18:41.930Z,5.07
2022-08-28T04:23:44.939Z,4.63
2022-08-28T04:28:47.596Z,4.37
2022-08-28T04:33:49.295Z,4.90
2022-08-28T04:38:51.061Z,4.87
2022-08-28T04:43:53.854Z,4.27
2022-08-28T04:48:56.107Z,4.13
2022-08-28T04:53:58.490Z,4.97
2022-08-28T04:59:01.652Z,4.77
2022-08-28T05:04:04.302Z,4.23
2022-08-28T05:09:05.987Z,4.60
2022-08-28T05:14:15.903Z,5.17
2022-08-28T05:19:21.413Z,4.47
2022-08-28T05:24:23.446Z,4.23
2022-08-28T05:29:25.265Z,5.00
2022-08-28T05:34:27.090Z,4.23
2022-08-28T05:39:28.807Z,3.53
2022-08-28T05:44:30.502Z,4.60
2022-08-28T05:49:32.731Z,3.87
2022-08-28T05:54:37.295Z,4.40
2022-08-28T05:59:39.023Z,3.37
2022-08-28T06:04:40.795Z,3.37
2022-08-28T06:09:42.719Z,5.03
2022-08-28T06:14:44.910Z,4.03
2022-08-28T06:19:46.887Z,4.23
2022-08-28T06:24:48.796Z,4.83
2022-08-28T06:29:50.637Z,4.00
2022-08-28T06:34:52.336Z,3.57
2022-08-28T06:39:54.126Z,4.63
2022-08-28T06:44:56.045Z,3.40
2022-08-28T06:49:58.287Z,3.80
2022-08-28T06:54:59.994Z,4.50
2022-08-28T07:00:02.485Z,3.50
2022-08-28T07:05:05.310Z,3.53
2022-08-28T07:10:07.372Z,3.13
2022-08-28T07:15:10.458Z,3.27
2022-08-28T07:20:12.409Z,4.67
2022-08-28T07:25:14.375Z,2.77
2022-08-28T07:30:16.242Z,3.17
2022-08-28T07:35:19.211Z,2.50
2022-08-28T07:40:22.328Z,3.13
2022-08-28T07:45:26.133Z,2.87
2022-08-28T07:50:28.185Z,3.13
2022-08-28T07:55:31.872Z,3.57
2022-08-28T08:00:33.843Z,3.03
2022-08-28T08:05:35.698Z,3.20
2022-08-28T08:10:38.550Z,3.27
2022-08-28T08:15:41.936Z,3.37
2022-08-28T08:20:43.772Z,4.30
2022-08-28T08:25:59.901Z,2.47
2022-08-28T08:31:08.878Z,2.60
2022-08-28T08:36:12.208Z,3.50
2022-08-28T08:41:34.748Z,3.30
2022-08-28T08:46:52.757Z,2.57
2022-08-28T08:52:21.876Z,3.00
2022-08-28T08:57:24.208Z,3.23
2022-08-28T09:02:31.755Z,2.70
2022-08-28T09:07:57.471Z,3.20
2022-08-28T09:13:21.447Z,3.03
2022-08-28T09:18:27.208Z,2.73
2022-08-28T09:23:30.062Z,2.60
2022-08-28T09:28:41.866Z,1.97
2022-08-28T09:33:49.218Z,2.23
2022-08-28T09:39:07.009Z,2.60
2022-08-28T09:44:14.944Z,2.97
2022-08-28T09:49:27.169Z,2.57
2022-08-28T09:54:36.783Z,7.23
2022-08-28T09:59:38.644Z,2.73
2022-08-28T10:04:58.151Z,2.13
2022-08-28T10:10:06.977Z,2.83
2022-08-28T10:15:30.628Z,2.93
2022-08-28T10:20:48.013Z,2.17
2022-08-28T10:25:52.947Z,1.90
2022-08-28T10:31:18.983Z,2.33
2022-08-28T10:36:33.366Z,2.93
2022-08-28T10:41:41.890Z,2.63
2022-08-28T10:46:48.592Z,3.43
2022-08-28T10:51:54.265Z,2.27
2022-08-28T10:57:04.163Z,2.13
2022-08-28T11:02:08.984Z,3.03
2022-08-28T11:07:13.997Z,2.27
2022-08-28T11:12:19.775Z,2.73
2022-08-28T11:17:25.512Z,2.53
2022-08-28T11:22:29.047Z,2.63
2022-08-28T11:28:17.563Z,1.90
2022-08-28T11:34:29.497Z,2.30
2022-08-28T11:39:31.390Z,1.93
2022-08-28T11:44:54.010Z,2.47
2022-08-28T11:50:15.330Z,2.83
2022-08-28T12:02:15.554Z,1.20
2022-08-28T12:20:17.716Z,1.83
2022-08-28T12:25:38.902Z,2.10
2022-08-28T12:30:49.013Z,2.27
2022-08-28T12:35:51.312Z,2.20
2022-08-28T12:40:53.502Z,1.80
2022-08-28T12:46:19.621Z,1.70
2022-08-28T12:51:24.720Z,2.43
2022-08-28T12:56:30.915Z,1.83
2022-08-28T13:01:33.520Z,2.13
2022-08-28T13:06:59.612Z,2.47
2022-08-28T13:12:01.426Z,2.50
2022-08-28T13:22:39.381Z,2.17
2022-08-28T13:27:41.223Z,2.13
2022-08-28T13:33:00.125Z,1.80
2022-08-28T13:38:22.682Z,2.00
2022-08-28T13:43:29.802Z,1.63
2022-08-28T13:48:31.952Z,2.57
2022-08-28T13:53:33.743Z,1.73
2022-08-28T13:58:37.837Z,1.80
2022-08-28T14:03:39.622Z,2.10
2022-08-28T14:08:43.719Z,1.67
2022-08-28T14:13:55.124Z,2.00
2022-08-28T14:18:59.424Z,2.07
2022-08-28T14:24:01.364Z,2.17
2022-08-28T14:29:06.173Z,1.80
2022-08-28T14:34:13.741Z,2.60
2022-08-28T14:39:15.474Z,2.00
2022-08-28T14:44:18.631Z,1.33
2022-08-28T14:49:21.952Z,2.20
2022-08-28T14:54:25.400Z,1.47
2022-08-28T14:59:29.297Z,1.63
2022-08-28T15:04:37.739Z,2.63
2022-08-28T15:09:43.673Z,2.20
2022-08-28T15:14:57.108Z,1.37
2022-08-28T15:20:04.720Z,2.10
2022-08-28T15:25:11.782Z,1.63
2022-08-28T15:30:13.695Z,2.40
2022-08-28T15:35:16.462Z,1.70
2022-08-28T15:40:37.005Z,2.47
2022-08-28T15:45:40.005Z,1.80
2022-08-28T15:50:45.082Z,2.73
2022-08-28T15:55:46.838Z,1.57
2022-08-28T16:00:53.418Z,1.87
2022-08-28T16:05:58.579Z,1.63
2022-08-28T16:11:00.351Z,2.30
2022-08-28T16:16:02.982Z,1.67
2022-08-28T16:21:05.315Z,1.60
2022-08-28T16:26:07.873Z,2.27
2022-08-28T16:31:19.135Z,1.73
2022-08-28T16:36:35.574Z,1.97
2022-08-28T16:41:39.028Z,1.77
2022-08-28T16:46:41.002Z,2.00
2022-08-28T16:51:42.753Z,2.50
2022-08-28T16:56:45.666Z,2.20
2022-08-28T17:01:52.980Z,2.00
2022-08-28T17:07:04.200Z,2.23
2022-08-28T17:12:07.030Z,2.33
2022-08-28T17:17:09.081Z,1.50
2022-08-28T17:22:29.973Z,2.10
2022-08-28T17:27:32.296Z,2.10
2022-08-28T17:32:34.387Z,2.10
2022-08-28T17:37:38.105Z,3.23
2022-08-28T17:42:45.644Z,1.60
2022-08-28T17:47:48.229Z,2.03
2022-08-28T17:52:50.603Z,2.50
2022-08-28T17:57:53.642Z,1.87
2022-08-28T18:02:55.560Z,2.13
2022-08-28T18:07:57.831Z,2.60
2022-08-28T18:13:08.681Z,2.07
2022-08-28T18:18:13.331Z,1.70
2022-08-28T18:23:15.763Z,2.20
2022-08-28T18:28:22.457Z,2.77
2022-08-28T18:33:24.855Z,2.67
2022-08-28T18:38:28.386Z,3.00
2022-08-28T18:43:31.211Z,3.17
2022-08-28T18:48:32.975Z,2.10
2022-08-28T18:53:35.127Z,3.23
2022-08-28T18:58:36.872Z,2.87
2022-08-28T19:03:38.680Z,4.27
2022-08-28T19:08:40.716Z,2.63
2022-08-28T19:13:43.636Z,3.83
2022-08-28T19:18:47.992Z,5.97
2022-08-28T19:23:55.783Z,2.67
2022-08-28T19:28:59.117Z,8.33
2022-08-28T19:34:01.030Z,1.90
2022-08-28T19:39:03.150Z,2.00
2022-08-28T19:44:05.798Z,1.87
2022-08-28T19:49:07.940Z,2.23
2022-08-28T19:54:11.789Z,2.20
2022-08-28T19:59:13.605Z,3.77
2022-08-28T20:04:17.744Z,2.97
2022-08-28T20:09:19.521Z,2.50
2022-08-28T20:14:22.015Z,2.13
2022-08-28T20:19:24.087Z,2.33
2022-08-28T20:24:26.835Z,5.20
2022-08-28T20:29:29.222Z,6.10
2022-08-28T20:34:30.980Z,2.77
2022-08-28T20:39:33.033Z,2.03
2022-08-28T20:44:35.188Z,2.83
2022-08-28T20:49:39.246Z,3.80
2022-08-28T20:54:42.192Z,2.67
2022-08-28T20:59:45.573Z,3.07
2022-08-28T21:04:47.849Z,2.20
2022-08-28T21:10:04.848Z,2.00
2022-08-28T21:15:11.501Z,2.70
2022-08-28T21:20:14.891Z,3.33
2022-08-28T21:25:18.197Z,2.80
2022-08-28T21:30:21.434Z,2.13
2022-08-28T21:35:23.196Z,2.63
2022-08-28T21:40:24.977Z,2.37
2022-08-28T21:45:27.416Z,2.37
2022-08-28T21:50:29.423Z,2.47
2022-08-28T21:55:31.127Z,2.90
2022-08-28T22:00:32.835Z,2.40
2022-08-28T22:05:34.511Z,2.17
2022-08-28T22:10:40.288Z,2.40
2022-08-28T22:15:53.831Z,2.43
2022-08-28T22:22:01.663Z,2.43
2022-08-28T22:27:04.402Z,2.43
2022-08-28T22:32:07.507Z,2.30
2022-08-28T22:37:11.522Z,2.47
2022-08-28T22:42:13.296Z,2.73
2022-08-28T22:47:15.029Z,3.10
2022-08-28T22:52:17.299Z,2.90
2022-08-28T22:57:19.383Z,2.37
2022-08-28T23:02:21.815Z,3.07
2022-08-28T23:07:29.284Z,2.63
2022-08-28T23:12:31.340Z,3.03
2022-08-28T23:17:33.050Z,2.80
2022-08-28T23:22:35.294Z,2.80
2022-08-28T23:27:37.286Z,2.97
2022-08-28T23:32:39.279Z,2.53
2022-08-28T23:37:42.932Z,3.00
2022-08-28T23:42:46.563Z,2.63
2022-08-28T23:47:50.550Z,2.93
2022-08-28T23:52:52.585Z,3.23
2022-08-28T23:57:54.357Z,3.23
